Time;durP1;ratioP1;P1;durP2;ratioP2;P2;SDS_P1;SDS_P2;PMS_P1;PMS_P2;Temp;Humidity;BMP_temperature;BMP_pressure;BME280_temperature;BME280_humidity;BME280_pressure;Samples;Min_cycle;Max_cycle;Signal;HPM_P1;HPM_P2
2022/10/31 00:03:03;;;;;;;530.40;27.30;;;;;9.50;96769.00;;;;10181830;23;20655;-74
2022/10/31 00:07:06;;;;;;;481.20;27.80;;;;;9.50;96764.00;;;;10183950;23;20228;-74
2022/10/31 00:11:10;;;;;;;263.25;21.38;;;;;9.50;96773.00;;;;10183853;23;20197;-73
2022/10/31 00:15:13;;;;;;;150.25;14.55;;;;;9.50;96778.00;;;;10183521;23;20223;-73
2022/10/31 00:19:18;;;;;;;53.05;11.35;;;;;9.40;96773.00;;;;10184730;23;20201;-74
2022/10/31 00:23:51;;;;;;;138.40;15.77;;;;;9.30;96774.00;;;;10183851;23;20194;-73
2022/10/31 00:27:55;;;;;;;18.58;8.73;;;;;9.30;96768.00;;;;10184172;23;20529;-74
2022/10/31 00:31:59;;;;;;;15.63;7.93;;;;;9.30;96758.00;;;;10184724;23;21262;-75
2022/10/31 00:36:36;;;;;;;13.82;8.70;;;;;9.30;96759.00;;;;10183144;23;20619;-74
2022/10/31 00:40:40;;;;;;;20.45;9.38;;;;;9.40;96765.00;;;;10183814;23;20198;-74
2022/10/31 00:44:43;;;;;;;25.08;9.80;;;;;9.40;96767.00;;;;10137434;23;20627;-74
2022/10/31 00:48:46;;;;;;;17.60;8.48;;;;;9.40;96767.00;;;;10181302;23;20206;-74
2022/10/31 00:52:49;;;;;;;161.43;15.52;;;;;9.30;96770.00;;;;10186988;23;20570;-74
2022/10/31 00:56:54;;;;;;;28.63;10.18;;;;;9.30;96764.00;;;;10185124;23;20198;-75
2022/10/31 01:01:30;;;;;;;711.08;39.47;;;;;9.30;96765.00;;;;10186673;23;20198;-74
2022/10/31 01:05:34;;;;;;;235.50;18.60;;;;;9.30;96763.00;;;;10121765;23;20203;-74
2022/10/31 01:10:11;;;;;;;280.50;20.77;;;;;9.20;96760.00;;;;10143037;23;20214;-74
2022/10/31 01:14:15;;;;;;;513.42;27.13;;;;;9.10;96759.00;;;;10186640;23;20667;-73
2022/10/31 01:18:18;;;;;;;259.33;18.95;;;;;9.00;96769.00;;;;10184842;23;20197;-74
2022/10/31 01:22:55;;;;;;;40.80;9.77;;;;;8.90;96759.00;;;;10185669;23;20201;-73
2022/10/31 01:26:58;;;;;;;62.90;10.07;;;;;9.00;96768.00;;;;10184661;23;20190;-73
2022/10/31 01:31:38;;;;;;;550.33;28.90;;;;;8.90;96760.00;;;;10185941;23;20205;-74
2022/10/31 01:35:41;;;;;;;397.00;23.63;;;;;8.80;96758.00;;;;10185477;23;20617;-74
2022/10/31 01:39:44;;;;;;;269.42;19.48;;;;;8.70;96748.00;;;;10184993;23;20201;-73
2022/10/31 01:44:24;;;;;;;305.47;22.03;;;;;8.70;96756.00;;;;10186175;23;20198;-73
2022/10/31 01:48:31;;;;;;;432.02;24.13;;;;;8.80;96758.00;;;;10184815;23;20496;-73
2022/10/31 01:52:39;;;;;;;596.03;34.30;;;;;8.70;96756.00;;;;10166294;23;20198;-73
2022/10/31 01:56:48;;;;;;;69.17;9.00;;;;;8.70;96751.00;;;;10143305;23;20198;-73
2022/10/31 02:00:54;;;;;;;183.30;15.80;;;;;8.60;96746.00;;;;10185559;23;20515;-73
2022/10/31 02:05:31;;;;;;;120.93;11.15;;;;;8.50;96744.00;;;;10185758;23;20281;-73
2022/10/31 02:09:35;;;;;;;15.63;7.33;;;;;8.50;96760.00;;;;10185878;23;20606;-74
2022/10/31 02:14:09;;;;;;;15.13;7.40;;;;;8.50;96751.00;;;;10184375;23;20207;-73
2022/10/31 02:18:12;;;;;;;15.10;7.65;;;;;8.60;96763.00;;;;10184773;23;20194;-73
2022/10/31 02:22:22;;;;;;;12.52;6.80;;;;;8.60;96765.00;;;;10136014;23;20201;-73
2022/10/31 02:27:03;;;;;;;39.40;7.53;;;;;8.50;96765.00;;;;10134835;23;20474;-73
2022/10/31 02:31:23;;;;;;;20.10;7.25;;;;;8.30;96756.00;;;;10137327;23;20482;-73
2022/10/31 02:35:38;;;;;;;200.37;14.97;;;;;8.30;96757.00;;;;10185835;23;20221;-73
2022/10/31 02:44:46;;;;;;;156.77;13.97;;;;;8.40;96764.00;;;;10184441;23;20722;-73
2022/10/31 02:49:20;;;;;;;271.37;17.43;;;;;8.30;96761.00;;;;10184917;23;20205;-73
2022/10/31 02:53:23;;;;;;;319.43;19.63;;;;;8.20;96759.00;;;;10182427;23;20210;-74
2022/10/31 02:57:29;;;;;;;355.97;22.13;;;;;8.20;96761.00;;;;10183792;23;20382;-74
2022/10/31 03:02:17;;;;;;;33.07;8.13;;;;;8.10;96766.00;;;;10185343;23;20193;-74
2022/10/31 03:06:29;;;;;;;116.40;11.63;;;;;8.10;96765.00;;;;10184141;23;20201;-73
2022/10/31 03:10:41;;;;;;;18.60;6.73;;;;;8.10;96771.00;;;;10183812;23;20617;-74
2022/10/31 03:14:52;;;;;;;13.20;6.90;;;;;8.10;96767.00;;;;10185325;23;20644;-72
2022/10/31 03:19:01;;;;;;;45.70;7.80;;;;;8.10;96763.00;;;;10184314;23;20228;-73
2022/10/31 03:23:35;;;;;;;18.93;8.10;;;;;8.00;96771.00;;;;10185898;23;20202;-74
2022/10/31 03:27:40;;;;;;;23.60;8.70;;;;;8.00;96772.00;;;;10184363;23;20193;-74
2022/10/31 03:31:48;;;;;;;21.43;8.43;;;;;8.00;96768.00;;;;10184151;23;20205;-74
2022/10/31 03:35:54;;;;;;;18.45;8.38;;;;;8.10;96774.00;;;;10183955;23;20663;-74
2022/10/31 03:40:01;;;;;;;14.63;6.88;;;;;8.10;96782.00;;;;10183480;23;20204;-74
2022/10/31 03:44:34;;;;;;;15.03;6.63;;;;;8.00;96783.00;;;;10183995;23;20225;-74
2022/10/31 03:49:12;;;;;;;11.90;6.53;;;;;8.00;96785.00;;;;10182420;23;20204;-74
2022/10/31 03:53:20;;;;;;;15.40;6.70;;;;;8.00;96794.00;;;;10183399;23;20194;-74
2022/10/31 03:57:30;;;;;;;71.63;9.23;;;;;8.00;96784.00;;;;10182921;23;20532;-74
2022/10/31 04:01:40;;;;;;;48.80;8.73;;;;;8.00;96782.00;;;;10183682;23;20189;-75
2022/10/31 04:05:47;;;;;;;227.90;15.37;;;;;8.00;96781.00;;;;10178674;23;20293;-74
2022/10/31 04:09:52;;;;;;;192.70;15.57;;;;;7.90;96781.00;;;;10183675;23;20225;-74
2022/10/31 04:14:00;;;;;;;157.10;13.50;;;;;7.80;96772.00;;;;10184282;23;20504;-74
2022/10/31 04:18:06;;;;;;;273.77;18.17;;;;;7.80;96774.00;;;;10175362;23;20590;-74
2022/10/31 04:22:39;;;;;;;88.77;10.33;;;;;7.70;96770.00;;;;10184334;23;20202;-74
2022/10/31 04:27:16;;;;;;;29.03;8.17;;;;;7.50;96762.00;;;;10136380;23;20276;-73
2022/10/31 04:31:54;;;;;;;11.07;6.00;;;;;7.40;96767.00;;;;10182647;23;20198;-74
2022/10/31 04:35:57;;;;;;;15.07;7.10;;;;;7.50;96762.00;;;;10181155;23;20202;-73
2022/10/31 04:40:00;;;;;;;11.73;6.57;;;;;7.50;96771.00;;;;10183525;23;20497;-74
2022/10/31 04:44:03;;;;;;;11.10;6.33;;;;;7.60;96766.00;;;;10182117;23;20245;-73
2022/10/31 04:48:42;;;;;;;251.53;17.47;;;;;7.60;96762.00;;;;10165031;23;20201;-72
2022/10/31 04:53:15;;;;;;;240.10;16.47;;;;;7.60;96771.00;;;;10135708;23;20501;-72
2022/10/31 04:57:54;;;;;;;156.23;13.43;;;;;7.70;96768.00;;;;10183893;23;20220;-72
2022/10/31 05:02:32;;;;;;;139.70;13.30;;;;;7.70;96774.00;;;;10183292;23;20561;-72
2022/10/31 05:07:10;;;;;;;76.40;10.63;;;;;7.70;96775.00;;;;10183840;23;20209;-73
2022/10/31 05:11:14;;;;;;;97.53;11.43;;;;;7.80;96769.00;;;;10133477;23;20195;-72
2022/10/31 05:15:50;;;;;;;203.80;15.47;;;;;7.70;96774.00;;;;10117248;23;20212;-72
2022/10/31 05:20:29;;;;;;;257.47;17.77;;;;;7.70;96773.00;;;;10145473;23;20199;-72
2022/10/31 05:25:05;;;;;;;274.07;19.07;;;;;7.70;96769.00;;;;10183680;23;20190;-73
2022/10/31 05:29:38;;;;;;;105.47;13.90;;;;;7.70;96769.00;;;;10176997;23;20190;-74
2022/10/31 05:34:15;;;;;;;127.87;14.73;;;;;7.70;96759.00;;;;10185290;23;20206;-76
2022/10/31 05:38:52;;;;;;;296.47;19.70;;;;;7.70;96761.00;;;;10184168;23;20194;-75
2022/10/31 05:43:30;;;;;;;254.60;18.30;;;;;7.80;96758.00;;;;10178819;23;20264;-75
2022/10/31 05:48:07;;;;;;;92.63;12.90;;;;;7.80;96757.00;;;;10186048;23;20240;-74
2022/10/31 05:52:44;;;;;;;44.27;10.83;;;;;7.90;96759.00;;;;10183753;23;20190;-73
2022/10/31 05:57:21;;;;;;;104.85;14.10;;;;;7.90;96764.00;;;;10178552;23;20614;-74
2022/10/31 06:02:00;;;;;;;116.27;14.10;;;;;7.90;96771.00;;;;10185453;23;20230;-74
2022/10/31 06:06:33;;;;;;;194.40;16.50;;;;;8.00;96777.00;;;;10184003;23;20650;-74
2022/10/31 06:10:53;;;;;;;37.57;11.50;;;;;7.90;96783.00;;;;10184994;23;20194;-74
2022/10/31 06:15:27;;;;;;;84.13;12.93;;;;;7.90;96779.00;;;;10184744;23;20199;-75
2022/10/31 06:20:04;;;;;;;138.50;14.90;;;;;7.90;96774.00;;;;10134745;23;20191;-75
2022/10/31 06:24:41;;;;;;;359.35;22.50;;;;;8.00;96772.00;;;;10148327;23;20266;-76
2022/10/31 06:29:19;;;;;;;115.70;12.30;;;;;8.00;96779.00;;;;10136417;23;20578;-76
2022/10/31 06:33:53;;;;;;;37.10;10.40;;;;;8.00;96783.00;;;;10137095;23;20194;-74
2022/10/31 06:38:30;;;;;;;27.20;9.47;;;;;8.10;96786.00;;;;10184604;23;20261;-74
2022/10/31 06:48:06;;;;;;;92.23;11.90;;;;;8.30;96798.00;;;;10182695;23;20478;-74
2022/10/31 06:52:40;;;;;;;123.70;14.15;;;;;8.40;96797.00;;;;10183290;23;20186;-75
2022/10/31 06:57:17;;;;;;;376.33;24.10;;;;;8.50;96806.00;;;;10180787;23;20233;-74
2022/10/31 07:01:54;;;;;;;129.27;15.43;;;;;8.60;96803.00;;;;10183363;23;20337;-75
2022/10/31 07:06:32;;;;;;;44.33;16.07;;;;;8.70;96803.00;;;;10182483;23;20561;-76
2022/10/31 07:11:07;;;;;;;30.40;9.73;;;;;8.80;96810.00;;;;10185174;23;20220;-76
2022/10/31 07:15:43;;;;;;;28.43;12.30;;;;;8.90;96809.00;;;;10183068;23;20201;-76
2022/10/31 07:20:21;;;;;;;31.52;13.23;;;;;9.00;96805.00;;;;10184503;23;20191;-81
2022/10/31 07:24:59;;;;;;;33.75;13.70;;;;;9.10;96812.00;;;;10185311;23;20194;-82
2022/10/31 07:29:33;;;;;;;22.55;11.02;;;;;9.30;96807.00;;;;10135562;23;20207;-80
2022/10/31 07:34:07;;;;;;;20.30;9.30;;;;;9.40;96808.00;;;;10135164;23;20187;-79
2022/10/31 07:38:44;;;;;;;19.10;9.43;;;;;9.60;96809.00;;;;10185823;23;20198;-82
2022/10/31 07:48:21;;;;;;;18.00;9.60;;;;;9.90;96816.00;;;;10184935;23;20620;-82
2022/10/31 07:52:59;;;;;;;13.85;8.30;;;;;10.10;96819.00;;;;10183868;23;20192;-81
2022/10/31 07:57:30;;;;;;;16.65;8.55;;;;;10.20;96807.00;;;;10183695;23;20284;-81
2022/10/31 08:02:08;;;;;;;12.32;8.10;;;;;10.40;96802.00;;;;10184171;23;20232;-77
2022/10/31 08:06:42;;;;;;;17.27;9.02;;;;;10.60;96800.00;;;;10185073;23;20190;-83
2022/10/31 08:11:20;;;;;;;18.17;8.75;;;;;10.80;96792.00;;;;10183951;23;20442;-83
2022/10/31 08:15:54;;;;;;;18.13;8.98;;;;;11.00;96787.00;;;;10183692;23;20200;-83
2022/10/31 08:20:31;;;;;;;21.27;9.20;;;;;11.30;96788.00;;;;10182724;23;20483;-82
2022/10/31 08:25:08;;;;;;;18.33;9.50;;;;;11.60;96781.00;;;;10184404;23;20241;-84
2022/10/31 08:29:12;;;;;;;14.57;8.38;;;;;11.80;96773.00;;;;10184036;23;20196;-84
2022/10/31 08:33:46;;;;;;;19.30;9.20;;;;;12.00;96774.00;;;;10183836;23;20198;-84
2022/10/31 08:38:23;;;;;;;19.58;10.00;;;;;12.20;96760.00;;;;10177322;23;20196;-84
2022/10/31 08:43:01;;;;;;;20.65;11.60;;;;;12.40;96773.00;;;;10183962;23;20277;-83
2022/10/31 08:47:40;;;;;;;24.35;10.85;;;;;12.60;96774.00;;;;10129009;23;20198;-79
2022/10/31 08:52:17;;;;;;;26.05;12.60;;;;;12.80;96765.00;;;;10184639;23;20205;-82
2022/10/31 08:56:54;;;;;;;26.98;12.48;;;;;12.90;96770.00;;;;10184182;23;20284;-83
2022/10/31 09:01:31;;;;;;;23.98;13.20;;;;;13.20;96773.00;;;;10182494;23;20194;-86
2022/10/31 09:06:08;;;;;;;31.70;13.65;;;;;13.40;96772.00;;;;10187048;23;20639;-85
2022/10/31 09:10:47;;;;;;;32.40;12.25;;;;;13.60;96774.00;;;;10187063;23;20493;-84
2022/10/31 09:15:23;;;;;;;36.03;13.25;;;;;14.00;96779.00;;;;10185771;23;20237;-82
2022/10/31 09:20:00;;;;;;;30.73;13.25;;;;;14.40;96770.00;;;;10185787;23;20198;-82
2022/10/31 09:24:37;;;;;;;49.92;14.90;;;;;14.80;96776.00;;;;10137058;23;20607;-81
2022/10/31 09:29:16;;;;;;;40.15;14.45;;;;;14.90;96773.00;;;;10180587;23;20264;-77
2022/10/31 09:33:49;;;;;;;46.67;14.73;;;;;15.20;96770.00;;;;10187268;23;20189;-89
2022/10/31 09:38:26;;;;;;;40.80;13.82;;;;;15.30;96769.00;;;;10138151;23;20265;-81
2022/10/31 09:48:09;;;;;;;35.35;15.23;;;;;15.60;96775.00;;;;10186117;23;20190;-80
2022/10/31 09:52:40;;;;;;;43.30;16.10;;;;;15.80;96765.00;;;;10186314;23;20368;-82
2022/10/31 09:57:15;;;;;;;44.15;17.08;;;;;15.90;96766.00;;;;10186443;23;20211;-81
2022/10/31 10:01:52;;;;;;;38.17;16.02;;;;;16.10;96761.00;;;;10186764;23;20629;-81
2022/10/31 10:06:29;;;;;;;41.60;16.30;;;;;16.10;96754.00;;;;10185703;23;20190;-84
2022/10/31 10:11:09;;;;;;;44.63;16.55;;;;;16.00;96742.00;;;;10186438;23;20190;-83
2022/10/31 10:15:52;;;;;;;35.90;16.02;;;;;15.60;96746.00;;;;10183983;23;20194;-82
2022/10/31 10:20:23;;;;;;;30.15;15.23;;;;;15.40;96751.00;;;;10184081;23;20325;-83
2022/10/31 10:25:02;;;;;;;36.20;15.75;;;;;15.30;96736.00;;;;10178872;23;20493;-84
2022/10/31 10:29:35;;;;;;;32.92;15.38;;;;;15.50;96745.00;;;;10185922;23;20205;-85
2022/10/31 10:34:09;;;;;;;29.92;16.23;;;;;15.70;96745.00;;;;10185452;23;20198;-83
2022/10/31 10:38:50;;;;;;;32.67;15.13;;;;;15.70;96730.00;;;;10183295;23;20490;-85
2022/10/31 10:43:22;;;;;;;35.00;15.60;;;;;15.90;96725.00;;;;10186627;23;20232;-84
2022/10/31 10:48:08;;;;;;;35.75;16.85;;;;;16.00;96723.00;;;;10185081;23;20222;-85
2022/10/31 10:52:40;;;;;;;31.50;15.18;;;;;16.20;96717.00;;;;10184464;23;20198;-78
2022/10/31 10:57:21;;;;;;;31.85;15.15;;;;;16.40;96716.00;;;;10186611;23;20210;-78
2022/10/31 11:01:50;;;;;;;35.10;15.95;;;;;16.60;96713.00;;;;10178699;23;20230;-76
2022/10/31 11:06:26;;;;;;;35.03;17.27;;;;;16.80;96703.00;;;;10185878;23;20485;-77
2022/10/31 11:11:01;;;;;;;40.60;17.83;;;;;17.00;96703.00;;;;10183090;23;20502;-78
2022/10/31 11:15:35;;;;;;;35.78;16.85;;;;;17.30;96703.00;;;;10185222;23;20202;-78
2022/10/31 11:20:12;;;;;;;33.00;15.25;;;;;17.40;96700.00;;;;10177927;23;20201;-77
2022/10/31 11:24:50;;;;;;;39.85;16.98;;;;;17.50;96686.00;;;;10164090;23;20524;-77
2022/10/31 11:29:27;;;;;;;36.85;17.80;;;;;17.70;96682.00;;;;10184931;23;20202;-77
2022/10/31 11:34:04;;;;;;;32.88;16.15;;;;;17.90;96686.00;;;;10180722;23;20194;-77
2022/10/31 11:38:41;;;;;;;33.65;15.45;;;;;18.20;96671.00;;;;10185024;23;20205;-76
2022/10/31 11:43:20;;;;;;;29.77;13.57;;;;;18.50;96669.00;;;;10181959;23;20198;-76
2022/10/31 11:47:55;;;;;;;28.08;12.95;;;;;18.60;96665.00;;;;10183535;23;20537;-76
2022/10/31 11:52:38;;;;;;;29.80;13.80;;;;;18.60;96661.00;;;;10179261;23;20189;-75
2022/10/31 11:57:12;;;;;;;23.92;12.48;;;;;18.50;96653.00;;;;10183213;23;20289;-76
2022/10/31 12:01:52;;;;;;;24.60;11.77;;;;;18.60;96651.00;;;;10182258;23;20269;-76
2022/10/31 12:06:24;;;;;;;19.98;11.88;;;;;18.70;96635.00;;;;10185585;23;20198;-76
2022/10/31 12:11:03;;;;;;;30.23;14.23;;;;;18.60;96642.00;;;;10184554;23;20620;-76
2022/10/31 12:15:35;;;;;;;37.13;13.27;;;;;18.50;96631.00;;;;10184708;23;20256;-76
2022/10/31 12:20:13;;;;;;;35.60;14.32;;;;;18.50;96626.00;;;;10183463;23;20202;-76
2022/10/31 12:25:05;;;;;;;31.77;14.00;;;;;18.60;96625.00;;;;10182706;23;20484;-76
2022/10/31 12:29:31;;;;;;;26.20;13.18;;;;;18.90;96616.00;;;;10180675;23;20632;-76
2022/10/31 12:34:14;;;;;;;27.30;14.52;;;;;19.00;96615.00;;;;10179982;23;20197;-78
2022/10/31 12:38:45;;;;;;;27.13;13.68;;;;;19.10;96615.00;;;;10167547;23;20198;-77
2022/10/31 12:43:21;;;;;;;29.05;14.95;;;;;19.10;96613.00;;;;10184298;23;20699;-77
2022/10/31 12:47:58;;;;;;;29.67;15.45;;;;;19.00;96611.00;;;;10178104;23;20633;-76
2022/10/31 12:52:33;;;;;;;32.92;16.33;;;;;18.90;96600.00;;;;10164677;23;20193;-77
2022/10/31 12:57:07;;;;;;;31.00;15.82;;;;;18.80;96592.00;;;;10184033;23;20589;-77
2022/10/31 13:01:41;;;;;;;32.70;17.02;;;;;18.80;96594.00;;;;10184867;23;20194;-76
2022/10/31 13:05:49;;;;;;;35.17;17.20;;;;;18.80;96587.00;;;;10186432;23;20201;-73
2022/10/31 13:10:02;;;;;;;36.80;17.20;;;;;18.80;96580.00;;;;10185924;23;20202;-73
2022/10/31 13:14:28;;;;;;;35.72;17.17;;;;;18.80;96577.00;;;;10183802;23;20198;-72
2022/10/31 13:19:14;;;;;;;29.90;15.82;;;;;18.80;96577.00;;;;10182528;23;20287;-73
2022/10/31 13:23:42;;;;;;;32.08;15.77;;;;;19.00;96581.00;;;;10186555;23;20197;-76
2022/10/31 13:28:24;;;;;;;32.80;15.55;;;;;19.00;96577.00;;;;10184883;23;20209;-76
2022/10/31 13:32:59;;;;;;;38.17;16.13;;;;;19.20;96567.00;;;;10173523;23;20197;-77
2022/10/31 13:37:37;;;;;;;25.40;13.60;;;;;19.20;96568.00;;;;10166350;23;20277;-77
2022/10/31 13:42:08;;;;;;;36.05;14.93;;;;;19.20;96561.00;;;;10186154;23;20193;-78
2022/10/31 13:51:48;;;;;;;23.45;12.82;;;;;19.30;96553.00;;;;10162643;23;20190;-79
2022/10/31 13:56:25;;;;;;;37.40;14.70;;;;;19.30;96550.00;;;;10184166;23;20271;-79
2022/10/31 14:01:13;;;;;;;32.40;14.32;;;;;19.30;96541.00;;;;10185628;23;20198;-76
2022/10/31 14:05:38;;;;;;;28.27;13.10;;;;;19.20;96536.00;;;;10183903;23;20190;-76
2022/10/31 14:10:22;;;;;;;30.08;12.95;;;;;19.20;96532.00;;;;10185767;23;20197;-76
2022/10/31 14:14:52;;;;;;;28.30;12.75;;;;;19.10;96526.00;;;;10185919;23;20213;-76
2022/10/31 14:19:27;;;;;;;25.80;11.68;;;;;19.00;96527.00;;;;10185458;23;20230;-76
2022/10/31 14:24:14;;;;;;;24.70;12.48;;;;;19.10;96523.00;;;;10187452;23;20190;-76
2022/10/31 14:28:39;;;;;;;27.35;13.32;;;;;19.10;96522.00;;;;10185733;23;20198;-76
2022/10/31 14:33:19;;;;;;;46.03;21.25;;;;;19.20;96520.00;;;;10186150;23;20194;-76
2022/10/31 14:37:52;;;;;;;41.83;17.58;;;;;19.20;96513.00;;;;10185546;23;20505;-76
2022/10/31 14:42:36;;;;;;;29.55;15.27;;;;;19.20;96506.00;;;;10186737;23;20320;-77
2022/10/31 14:52:14;;;;;;;22.23;12.05;;;;;19.20;96494.00;;;;10186059;23;20635;-77
2022/10/31 14:56:50;;;;;;;25.08;12.25;;;;;19.10;96490.00;;;;10184904;23;20197;-76
2022/10/31 15:01:26;;;;;;;27.52;13.50;;;;;19.10;96495.00;;;;10185897;23;20197;-75
2022/10/31 15:06:01;;;;;;;39.80;13.30;;;;;19.00;96484.00;;;;10185398;23;20248;-76
2022/10/31 15:10:19;;;;;;;36.28;15.25;;;;;19.00;96480.00;;;;10184458;23;20617;-77
2022/10/31 15:14:25;;;;;;;25.48;13.13;;;;;18.90;96479.00;;;;10186384;23;20510;-76
2022/10/31 15:19:01;;;;;;;34.20;13.07;;;;;18.70;96473.00;;;;10184986;23;20198;-77
2022/10/31 15:23:36;;;;;;;30.58;12.40;;;;;18.50;96471.00;;;;10183013;23;20198;-77
2022/10/31 15:28:22;;;;;;;33.83;12.45;;;;;18.30;96468.00;;;;10184409;23;20602;-76
2022/10/31 15:32:53;;;;;;;32.22;12.32;;;;;18.10;96460.00;;;;10184597;23;20193;-76
2022/10/31 15:37:29;;;;;;;25.77;12.68;;;;;17.80;96459.00;;;;10180207;23;20513;-77
2022/10/31 15:42:06;;;;;;;33.38;13.63;;;;;17.40;96448.00;;;;10172661;23;20186;-79
2022/10/31 15:46:10;;;;;;;31.88;13.70;;;;;17.00;96437.00;;;;10181059;23;20195;-78
2022/10/31 15:50:48;;;;;;;33.00;15.25;;;;;16.70;96444.00;;;;10183893;23;20231;-78
2022/10/31 15:55:22;;;;;;;39.10;15.25;;;;;16.40;96436.00;;;;10184061;23;20593;-79
2022/10/31 15:59:59;;;;;;;35.17;13.88;;;;;16.30;96437.00;;;;10184754;23;20190;-78
2022/10/31 16:04:06;;;;;;;40.50;14.70;;;;;16.20;96430.00;;;;10184331;23;20504;-78
2022/10/31 16:08:46;;;;;;;24.77;14.40;;;;;16.10;96425.00;;;;10183776;23;20645;-77
2022/10/31 16:12:49;;;;;;;28.13;14.80;;;;;16.10;96427.00;;;;10183940;23;20660;-77
2022/10/31 16:16:54;;;;;;;41.03;21.13;;;;;16.10;96432.00;;;;10183509;23;20209;-77
2022/10/31 16:21:31;;;;;;;38.78;16.60;;;;;16.00;96437.00;;;;10183177;23;20249;-77
2022/10/31 16:25:37;;;;;;;37.40;17.13;;;;;15.90;96442.00;;;;10182776;23;20197;-78
2022/10/31 16:29:44;;;;;;;35.95;17.17;;;;;15.70;96449.00;;;;10184767;23;20609;-78
2022/10/31 16:33:47;;;;;;;51.00;25.02;;;;;15.60;96449.00;;;;10168168;23;20213;-77
2022/10/31 16:37:51;;;;;;;42.92;21.02;;;;;15.40;96431.00;;;;10182951;23;20252;-74
2022/10/31 16:42:28;;;;;;;37.95;21.13;;;;;15.20;96434.00;;;;10184163;23;20209;-78
2022/10/31 16:46:31;;;;;;;36.17;16.92;;;;;15.20;96423.00;;;;10184012;23;20206;-77
2022/10/31 16:51:07;;;;;;;37.03;17.23;;;;;15.30;96414.00;;;;10184850;23;20501;-76
2022/10/31 16:55:16;;;;;;;29.17;14.45;;;;;15.40;96406.00;;;;10183846;23;20597;-77
2022/10/31 16:59:19;;;;;;;28.73;13.45;;;;;15.60;96415.00;;;;10181406;23;20198;-76
2022/10/31 17:03:23;;;;;;;29.02;12.70;;;;;15.60;96429.00;;;;10183933;23;20320;-78
2022/10/31 17:07:50;;;;;;;33.05;15.25;;;;;15.60;96433.00;;;;10181919;23;20194;-76
2022/10/31 17:12:27;;;;;;;29.92;15.88;;;;;15.50;96432.00;;;;10183846;23;20190;-75
2022/10/31 17:16:30;;;;;;;37.25;16.17;;;;;15.40;96439.00;;;;10183494;23;20228;-76
2022/10/31 17:20:33;;;;;;;33.30;16.30;;;;;15.20;96435.00;;;;10182880;23;20206;-76
2022/10/31 17:24:44;;;;;;;43.50;19.20;;;;;14.90;96432.00;;;;10183383;23;20198;-73
2022/10/31 17:29:14;;;;;;;40.30;17.25;;;;;14.60;96427.00;;;;10186568;23;20213;-77
2022/10/31 17:33:19;;;;;;;80.13;40.83;;;;;14.20;96427.00;;;;10186854;23;20621;-77
2022/10/31 17:37:53;;;;;;;35.60;17.23;;;;;13.90;96418.00;;;;10174415;23;20190;-78
2022/10/31 17:42:30;;;;;;;44.95;21.33;;;;;13.60;96417.00;;;;10187215;23;20240;-76
2022/10/31 17:46:33;;;;;;;25.77;13.23;;;;;13.30;96420.00;;;;10186170;23;20194;-78
2022/10/31 17:50:37;;;;;;;32.78;16.23;;;;;13.20;96421.00;;;;10187822;23;20205;-77
2022/10/31 17:55:14;;;;;;;50.53;25.60;;;;;13.00;96419.00;;;;10186081;23;20200;-77
2022/10/31 17:59:17;;;;;;;55.05;28.50;;;;;12.90;96417.00;;;;10186205;23;20201;-77
2022/10/31 18:03:20;;;;;;;52.53;27.80;;;;;12.80;96415.00;;;;10179689;23;20201;-77
2022/10/31 18:07:58;;;;;;;70.75;29.50;;;;;12.70;96417.00;;;;10185740;23;20198;-78
2022/10/31 18:12:06;;;;;;;58.50;27.45;;;;;12.60;96415.00;;;;10186013;23;20276;-78
2022/10/31 18:16:43;;;;;;;54.38;26.05;;;;;12.50;96407.00;;;;10186585;23;20209;-78
2022/10/31 18:20:46;;;;;;;46.97;23.00;;;;;12.40;96419.00;;;;10168913;23;20209;-78
2022/10/31 18:24:50;;;;;;;32.42;16.83;;;;;12.30;96409.00;;;;10186833;23;20204;-76
2022/10/31 18:29:24;;;;;;;49.88;20.58;;;;;12.20;96398.00;;;;10168907;23;20197;-77
2022/10/31 18:33:27;;;;;;;58.45;25.08;;;;;12.20;96400.00;;;;10182489;23;20204;-77
2022/10/31 18:37:30;;;;;;;34.58;15.48;;;;;12.00;96393.00;;;;10185957;23;20653;-77
2022/10/31 18:42:09;;;;;;;51.85;20.42;;;;;11.90;96402.00;;;;10169029;23;20209;-83
2022/10/31 18:46:14;;;;;;;45.05;19.02;;;;;11.90;96411.00;;;;10184698;23;20200;-83
2022/10/31 18:50:17;;;;;;;40.42;17.65;;;;;11.80;96405.00;;;;10186187;23;20485;-83
2022/10/31 18:54:20;;;;;;;51.70;21.10;;;;;11.80;96404.00;;;;10185063;23;20309;-83
2022/10/31 18:59:01;;;;;;;51.08;24.25;;;;;11.60;96399.00;;;;10186232;23;20512;-83
2022/10/31 19:03:05;;;;;;;42.90;22.05;;;;;11.50;96398.00;;;;10184661;23;20206;-82
2022/10/31 19:07:08;;;;;;;38.72;17.35;;;;;11.40;96392.00;;;;10184906;23;20216;-83
2022/10/31 19:11:13;;;;;;;46.58;20.20;;;;;11.20;96384.00;;;;10184661;23;20234;-84
2022/10/31 19:15:48;;;;;;;198.25;62.72;;;;;11.10;96389.00;;;;10184999;23;20202;-84
2022/10/31 19:19:52;;;;;;;54.08;25.65;;;;;11.00;96384.00;;;;10183810;23;20203;-84
2022/10/31 19:24:32;;;;;;;56.13;25.58;;;;;10.90;96386.00;;;;10185833;23;20470;-78
2022/10/31 19:28:36;;;;;;;54.15;24.67;;;;;10.90;96375.00;;;;10169600;23;20186;-81
2022/10/31 19:32:41;;;;;;;58.35;26.23;;;;;10.80;96379.00;;;;10185651;23;20200;-81
2022/10/31 19:37:18;;;;;;;56.45;27.50;;;;;10.70;96381.00;;;;10185404;23;20203;-83
2022/10/31 19:41:23;;;;;;;42.50;21.63;;;;;10.70;96383.00;;;;10182861;23;20600;-81
2022/10/31 19:45:57;;;;;;;54.25;24.00;;;;;10.70;96378.00;;;;10184765;23;20221;-83
2022/10/31 19:50:03;;;;;;;50.22;21.50;;;;;10.70;96384.00;;;;10182770;23;20197;-84
2022/10/31 19:54:37;;;;;;;44.03;20.70;;;;;10.60;96378.00;;;;10183929;23;20195;-83
2022/10/31 19:58:41;;;;;;;49.22;20.00;;;;;10.50;96370.00;;;;10184296;23;20197;-83
2022/10/31 20:03:18;;;;;;;47.67;21.15;;;;;10.40;96367.00;;;;10185862;23;20203;-83
2022/10/31 20:07:57;;;;;;;47.10;19.63;;;;;10.30;96366.00;;;;10184507;23;20313;-82
2022/10/31 20:12:00;;;;;;;45.70;21.52;;;;;10.30;96352.00;;;;10184355;23;20194;-85
2022/10/31 20:16:37;;;;;;;39.80;20.33;;;;;10.10;96358.00;;;;10183337;23;20199;-85
2022/10/31 20:20:40;;;;;;;51.92;19.75;;;;;10.10;96358.00;;;;10182903;23;20240;-85
2022/10/31 20:25:18;;;;;;;47.13;22.27;;;;;10.10;96366.00;;;;10185311;23;20217;-85
2022/10/31 20:29:22;;;;;;;56.75;22.42;;;;;10.10;96372.00;;;;10184418;23;20205;-84
2022/10/31 20:33:25;;;;;;;47.53;21.80;;;;;10.10;96376.00;;;;10185767;23;20198;-85
2022/10/31 20:37:28;;;;;;;58.33;25.08;;;;;10.10;96383.00;;;;10181903;23;20237;-83
2022/10/31 20:41:36;;;;;;;95.07;36.30;;;;;10.10;96375.00;;;;10182219;23;20269;-84
2022/10/31 20:45:39;;;;;;;105.68;29.52;;;;;10.10;96361.00;;;;10184597;23;20195;-83
2022/10/31 20:54:40;;;;;;;50.55;23.33;;;;;9.80;96365.00;;;;10183328;23;20251;-84
2022/10/31 20:59:18;;;;;;;59.45;26.88;;;;;9.80;96360.00;;;;10184572;23;20590;-84
2022/10/31 21:03:21;;;;;;;65.07;27.87;;;;;9.80;96364.00;;;;10186208;23;20537;-84
2022/10/31 21:07:55;;;;;;;55.67;23.48;;;;;9.80;96365.00;;;;10182334;23;20303;-84
2022/10/31 21:11:59;;;;;;;56.92;23.88;;;;;9.70;96362.00;;;;10182821;23;20221;-84
2022/10/31 21:16:38;;;;;;;67.85;26.98;;;;;9.70;96358.00;;;;10181133;23;20277;-84
2022/10/31 21:20:42;;;;;;;65.60;26.77;;;;;9.80;96357.00;;;;10181742;23;20201;-85
2022/10/31 21:25:16;;;;;;;56.08;23.60;;;;;9.70;96360.00;;;;10186796;23;20197;-81
2022/10/31 21:29:20;;;;;;;69.93;29.02;;;;;9.70;96357.00;;;;10185788;23;20517;-81
2022/10/31 21:33:56;;;;;;;51.95;21.55;;;;;9.70;96362.00;;;;10186975;23;20205;-81
2022/10/31 21:38:00;;;;;;;77.73;28.23;;;;;9.70;96352.00;;;;10171661;23;20624;-81
2022/10/31 21:42:34;;;;;;;62.72;25.75;;;;;9.80;96346.00;;;;10183470;23;20202;-81
2022/10/31 21:47:10;;;;;;;66.60;26.92;;;;;9.80;96348.00;;;;10185512;23;20246;-80
2022/10/31 21:51:17;;;;;;;65.72;26.70;;;;;10.00;96347.00;;;;10187722;23;20194;-80
2022/10/31 21:55:20;;;;;;;57.28;22.48;;;;;10.00;96350.00;;;;10187584;23;20687;-80
2022/10/31 21:59:56;;;;;;;72.70;25.63;;;;;10.00;96347.00;;;;10186068;23;20228;-80